Time;durP1;ratioP1;P1;durP2;ratioP2;P2;SDS_P1;SDS_P2;PMS_P1;PMS_P2;Temp;Humidity;BMP_temperature;BMP_pressure;BME280_temperature;BME280_humidity;BME280_pressure;Samples;Min_cycle;Max_cycle;Signal;HPM_P1;HPM_P2
2020/12/02 00:01:53;;;;;;;24.47;17.87;;;7.20;92.40;;;;;;5078650;28;20781;-51
2020/12/02 00:04:21;;;;;;;24.77;18.10;;;7.20;92.40;;;;;;5072421;28;20704;-51
2020/12/02 00:06:48;;;;;;;27.20;18.20;;;7.20;92.30;;;;;;5072497;28;20632;-50
2020/12/02 00:09:16;;;;;;;26.43;18.87;;;7.20;92.30;;;;;;5072207;28;20938;-50
2020/12/02 00:11:43;;;;;;;24.07;17.93;;;7.20;92.20;;;;;;5072851;28;20656;-50
2020/12/02 00:14:12;;;;;;;30.07;21.00;;;7.20;92.20;;;;;;5071920;28;20728;-52
2020/12/02 00:16:39;;;;;;;24.27;17.63;;;7.20;92.20;;;;;;5071089;28;21059;-50
2020/12/02 00:19:07;;;;;;;29.80;20.90;;;7.20;92.10;;;;;;5071877;28;20662;-52
2020/12/02 00:21:34;;;;;;;26.50;20.60;;;7.10;92.10;;;;;;5071778;28;20719;-52
2020/12/02 00:24:01;;;;;;;25.10;18.50;;;7.20;92.10;;;;;;5071693;28;21273;-50
2020/12/02 00:26:27;;;;;;;23.97;21.07;;;7.20;92.10;;;;;;5071949;28;20628;-49
2020/12/02 00:28:54;;;;;;;28.40;20.23;;;7.20;92.00;;;;;;5071885;28;20734;-49
2020/12/02 00:31:21;;;;;;;22.77;18.37;;;7.20;91.90;;;;;;5072013;28;20624;-50
2020/12/02 00:33:48;;;;;;;27.77;18.57;;;7.20;91.80;;;;;;5070723;28;20734;-51
2020/12/02 00:36:16;;;;;;;22.30;17.47;;;7.20;91.90;;;;;;5071747;28;20686;-50
2020/12/02 00:38:42;;;;;;;26.30;19.03;;;7.20;91.90;;;;;;5071597;28;20624;-51
2020/12/02 00:41:09;;;;;;;27.00;20.60;;;7.20;91.90;;;;;;5070991;28;20637;-50
2020/12/02 00:43:36;;;;;;;28.23;19.07;;;7.20;92.00;;;;;;5071259;28;20671;-51
2020/12/02 00:46:03;;;;;;;29.43;20.63;;;7.20;91.90;;;;;;5071511;28;21192;-50
2020/12/02 00:48:31;;;;;;;24.87;20.50;;;7.20;91.90;;;;;;5070422;28;21191;-50
2020/12/02 00:50:58;;;;;;;26.13;19.90;;;7.20;91.90;;;;;;5071325;28;20635;-50
2020/12/02 00:53:26;;;;;;;31.20;21.80;;;7.20;91.80;;;;;;5070744;28;20671;-50
2020/12/02 00:55:53;;;;;;;27.13;20.97;;;7.20;91.70;;;;;;5069556;28;20626;-53
2020/12/02 00:58:24;;;;;;;30.20;21.47;;;7.20;91.60;;;;;;5070288;28;21197;-51
2020/12/02 01:00:51;;;;;;;26.20;19.67;;;7.20;91.50;;;;;;5069368;28;20638;-52
2020/12/02 01:03:22;;;;;;;24.67;19.30;;;7.20;91.50;;;;;;5071088;28;21212;-53
2020/12/02 01:05:49;;;;;;;23.30;17.87;;;7.20;91.50;;;;;;5070157;28;20677;-53
2020/12/02 01:08:22;;;;;;;25.73;19.20;;;7.20;91.60;;;;;;5070773;28;20996;-53
2020/12/02 01:10:52;;;;;;;24.23;19.47;;;7.20;91.50;;;;;;5070929;28;20693;-54
2020/12/02 01:13:19;;;;;;;23.67;18.20;;;7.20;91.40;;;;;;5071066;28;20658;-53
2020/12/02 01:15:46;;;;;;;23.03;19.70;;;7.20;91.30;;;;;;5069814;28;20631;-52
2020/12/02 01:18:16;;;;;;;26.03;17.90;;;7.20;91.30;;;;;;5065863;28;20952;-52
2020/12/02 01:20:43;;;;;;;21.50;18.17;;;7.20;91.40;;;;;;5050573;28;20637;-52
2020/12/02 01:23:13;;;;;;;22.77;17.50;;;7.20;91.40;;;;;;5052649;28;21283;-52
2020/12/02 01:25:40;;;;;;;20.43;17.57;;;7.20;91.30;;;;;;5068086;28;20693;-52
2020/12/02 01:28:08;;;;;;;20.67;16.73;;;7.20;91.20;;;;;;5070213;28;20614;-52
2020/12/02 01:30:36;;;;;;;22.53;18.53;;;7.20;91.10;;;;;;5069927;28;20626;-50
2020/12/02 01:33:03;;;;;;;23.03;19.10;;;7.20;91.20;;;;;;5070193;28;20629;-52
2020/12/02 01:35:30;;;;;;;24.40;18.20;;;7.20;91.30;;;;;;5070258;28;20666;-52
2020/12/02 01:37:58;;;;;;;23.33;19.40;;;7.20;91.30;;;;;;5070003;28;20626;-51
2020/12/02 01:40:26;;;;;;;24.70;18.77;;;7.20;91.60;;;;;;5070192;28;20626;-51
2020/12/02 01:42:55;;;;;;;21.07;18.87;;;7.20;91.20;;;;;;5069931;28;20658;-51
2020/12/02 01:45:24;;;;;;;22.73;18.03;;;7.20;91.10;;;;;;5070004;28;20666;-51
2020/12/02 01:48:02;;;;;;;22.40;18.90;;;7.20;91.20;;;;;;5069915;28;21193;-53
2020/12/02 01:50:38;;;;;;;26.30;17.90;;;7.20;91.20;;;;;;5070612;28;20743;-50
2020/12/02 01:53:12;;;;;;;22.90;18.90;;;7.20;91.10;;;;;;5070449;28;20677;-49
2020/12/02 01:55:42;;;;;;;22.90;19.10;;;7.20;91.10;;;;;;5070343;28;21151;-49
2020/12/02 01:58:14;;;;;;;25.13;18.27;;;7.20;91.10;;;;;;5069892;28;20627;-49
2020/12/02 02:00:42;;;;;;;20.90;17.93;;;7.20;91.20;;;;;;5070060;28;20623;-49
2020/12/02 02:03:12;;;;;;;24.37;18.30;;;7.30;91.20;;;;;;5069953;28;21191;-49
2020/12/02 02:05:44;;;;;;;21.33;17.53;;;7.20;91.20;;;;;;5069448;28;20711;-49
2020/12/02 02:08:11;;;;;;;25.50;18.70;;;7.30;91.20;;;;;;5069739;28;20638;-49
2020/12/02 02:10:38;;;;;;;25.43;19.20;;;7.20;91.10;;;;;;5069962;28;20649;-48
2020/12/02 02:13:28;;;;;;;22.27;17.27;;;7.20;90.90;;;;;;5069404;28;20632;-49
2020/12/02 02:15:57;;;;;;;25.63;18.90;;;7.20;90.90;;;;;;5020847;28;20938;-49
2020/12/02 02:18:25;;;;;;;22.80;17.40;;;7.20;90.90;;;;;;5069450;28;20677;-49
2020/12/02 02:20:54;;;;;;;25.07;18.57;;;7.20;90.90;;;;;;5069709;28;21146;-49
2020/12/02 02:23:21;;;;;;;23.00;18.67;;;7.20;91.00;;;;;;5069500;28;20663;-50
2020/12/02 02:26:00;;;;;;;25.03;19.40;;;7.20;91.00;;;;;;5069597;28;20643;-49
2020/12/02 02:28:27;;;;;;;22.60;17.70;;;7.20;91.00;;;;;;5069389;28;20649;-50
2020/12/02 02:30:54;;;;;;;26.53;19.77;;;7.20;91.00;;;;;;5069196;28;21210;-50
2020/12/02 02:33:21;;;;;;;22.53;18.20;;;7.20;91.00;;;;;;5069242;28;20624;-49
2020/12/02 02:35:47;;;;;;;23.53;18.00;;;7.20;90.90;;;;;;5069790;28;20698;-50
2020/12/02 02:38:19;;;;;;;28.47;18.77;;;7.20;91.00;;;;;;5069008;28;20653;-49
2020/12/02 02:40:46;;;;;;;26.17;18.27;;;7.20;91.00;;;;;;5069641;28;20988;-49
2020/12/02 02:43:14;;;;;;;24.80;18.70;;;7.30;91.00;;;;;;5068751;28;20662;-49
2020/12/02 02:45:40;;;;;;;27.30;20.37;;;7.20;91.00;;;;;;5069184;28;21236;-50
2020/12/02 02:48:07;;;;;;;25.60;18.73;;;7.30;91.10;;;;;;5068604;28;21165;-50
2020/12/02 02:50:35;;;;;;;22.00;19.20;;;7.20;91.10;;;;;;5069272;28;21276;-52
2020/12/02 02:53:02;;;;;;;28.67;19.30;;;7.20;91.10;;;;;;5069488;28;20984;-52
2020/12/02 02:55:28;;;;;;;25.23;18.83;;;7.20;91.10;;;;;;5069048;28;20659;-52
2020/12/02 02:57:56;;;;;;;26.10;19.70;;;7.20;91.10;;;;;;5068434;28;20688;-52
2020/12/02 03:00:24;;;;;;;24.00;18.97;;;7.20;91.00;;;;;;5069132;28;20631;-52
2020/12/02 03:02:51;;;;;;;31.13;20.90;;;7.20;91.00;;;;;;5069151;28;20735;-49
2020/12/02 03:05:18;;;;;;;21.57;17.60;;;7.20;90.90;;;;;;5069505;28;20670;-51
2020/12/02 03:07:45;;;;;;;28.43;19.63;;;7.20;90.90;;;;;;5077236;28;20688;-52
2020/12/02 03:10:12;;;;;;;27.40;21.20;;;7.20;90.90;;;;;;5068922;28;21011;-52
2020/12/02 03:12:39;;;;;;;28.43;19.17;;;7.20;91.00;;;;;;5068614;28;20695;-52
2020/12/02 03:15:07;;;;;;;27.10;20.60;;;7.20;91.00;;;;;;5068017;28;20663;-52
2020/12/02 03:17:35;;;;;;;27.60;21.50;;;7.20;91.00;;;;;;5068699;28;20650;-50
2020/12/02 03:20:06;;;;;;;25.83;19.17;;;7.20;91.10;;;;;;5069328;28;20684;-50
2020/12/02 03:22:32;;;;;;;23.97;17.33;;;7.20;91.00;;;;;;5069232;28;20671;-51
2020/12/02 03:24:59;;;;;;;25.93;18.00;;;7.20;91.10;;;;;;5078469;28;20672;-53
2020/12/02 03:27:26;;;;;;;25.57;19.50;;;7.20;91.40;;;;;;5088193;28;20622;-53
2020/12/02 03:29:53;;;;;;;30.60;19.80;;;7.20;91.00;;;;;;5089486;28;21254;-52
2020/12/02 03:32:20;;;;;;;28.23;19.70;;;7.20;91.10;;;;;;5068674;28;20792;-51
2020/12/02 03:34:48;;;;;;;23.00;18.00;;;7.20;91.00;;;;;;5069239;28;21040;-50
2020/12/02 03:37:14;;;;;;;27.43;18.97;;;7.20;90.90;;;;;;5067145;28;21080;-51
2020/12/02 03:39:41;;;;;;;26.33;17.33;;;7.20;90.90;;;;;;5068640;28;21188;-50
2020/12/02 03:42:08;;;;;;;20.93;16.97;;;7.30;90.90;;;;;;5068858;28;21111;-48
2020/12/02 03:44:35;;;;;;;25.20;17.70;;;7.20;90.80;;;;;;5068332;28;20658;-51
2020/12/02 03:47:02;;;;;;;24.93;18.97;;;7.30;90.70;;;;;;5068359;28;21055;-50
2020/12/02 03:49:28;;;;;;;21.73;15.67;;;7.30;90.60;;;;;;5068889;28;20625;-50
2020/12/02 03:51:56;;;;;;;24.33;17.77;;;7.20;90.50;;;;;;5072506;28;20612;-50
2020/12/02 03:54:23;;;;;;;22.57;16.83;;;7.20;90.50;;;;;;5072194;28;21170;-51
2020/12/02 03:56:50;;;;;;;24.17;17.07;;;7.20;90.50;;;;;;5072080;28;20935;-48
2020/12/02 03:59:17;;;;;;;23.57;18.13;;;7.20;90.30;;;;;;5072775;28;20679;-50
2020/12/02 04:01:43;;;;;;;21.77;17.30;;;7.20;90.30;;;;;;5072733;28;20657;-51
2020/12/02 04:04:10;;;;;;;20.30;17.00;;;7.20;90.40;;;;;;5072092;28;20671;-51
2020/12/02 04:06:37;;;;;;;29.23;18.17;;;7.20;90.40;;;;;;5072045;28;20669;-50
2020/12/02 04:09:05;;;;;;;22.70;17.60;;;7.20;90.70;;;;;;5071905;28;21268;-51
2020/12/02 04:11:32;;;;;;;24.13;17.27;;;7.20;90.30;;;;;;5071803;28;20649;-50
2020/12/02 04:13:58;;;;;;;23.70;18.53;;;7.20;90.20;;;;;;5071316;28;20715;-51
2020/12/02 04:16:25;;;;;;;21.60;16.63;;;7.20;90.20;;;;;;5071029;28;20669;-50
2020/12/02 04:18:52;;;;;;;21.73;16.23;;;7.20;90.10;;;;;;5071964;28;20626;-52
2020/12/02 04:21:23;;;;;;;22.00;17.00;;;7.20;90.00;;;;;;5071808;28;20720;-53
2020/12/02 04:23:51;;;;;;;22.50;18.53;;;7.20;89.80;;;;;;5072043;28;20737;-53
2020/12/02 04:26:18;;;;;;;19.23;16.43;;;7.20;89.90;;;;;;5072134;28;21065;-50
2020/12/02 04:28:45;;;;;;;24.67;18.73;;;7.20;90.00;;;;;;5072011;28;20645;-49
2020/12/02 04:31:12;;;;;;;19.80;15.57;;;7.20;89.80;;;;;;5071708;28;20675;-49
2020/12/02 04:33:39;;;;;;;23.43;17.37;;;7.20;89.90;;;;;;5071399;28;21227;-49
2020/12/02 04:36:06;;;;;;;23.40;15.77;;;7.10;89.80;;;;;;5071421;28;20687;-48
2020/12/02 04:38:32;;;;;;;18.73;16.17;;;7.10;89.90;;;;;;5071334;28;20626;-49
2020/12/02 04:41:02;;;;;;;22.53;16.50;;;7.10;89.80;;;;;;5053389;28;20692;-53
2020/12/02 04:43:32;;;;;;;23.40;18.37;;;7.10;89.80;;;;;;5071298;28;20712;-52
2020/12/02 04:45:59;;;;;;;27.40;17.07;;;7.10;89.70;;;;;;5071341;28;20638;-52
2020/12/02 04:48:28;;;;;;;22.87;17.50;;;7.10;90.30;;;;;;5070943;28;20680;-53
2020/12/02 04:50:56;;;;;;;22.47;16.90;;;7.10;90.10;;;;;;5072412;28;20647;-53
2020/12/02 04:53:23;;;;;;;19.93;16.77;;;7.10;90.10;;;;;;5071510;28;20622;-52
2020/12/02 04:55:51;;;;;;;24.10;18.13;;;7.10;90.10;;;;;;5071405;28;20688;-51
2020/12/02 04:58:24;;;;;;;24.00;18.57;;;7.10;89.90;;;;;;5070482;28;20722;-52
2020/12/02 05:00:51;;;;;;;26.50;17.67;;;7.20;89.80;;;;;;5071180;28;20678;-51
2020/12/02 05:03:19;;;;;;;22.63;17.83;;;7.10;90.10;;;;;;5070136;28;20681;-53
2020/12/02 05:05:46;;;;;;;22.07;17.10;;;7.10;90.10;;;;;;5070766;28;20634;-53
2020/12/02 05:08:18;;;;;;;22.97;17.67;;;7.10;89.90;;;;;;5053300;28;20994;-53
2020/12/02 05:10:45;;;;;;;24.80;17.20;;;7.10;90.00;;;;;;5070405;28;20618;-50
2020/12/02 05:13:13;;;;;;;25.27;18.23;;;7.10;89.90;;;;;;5061970;28;20623;-49
2020/12/02 05:15:40;;;;;;;26.13;19.43;;;7.10;89.80;;;;;;5050954;28;20620;-49
2020/12/02 05:18:15;;;;;;;20.87;16.50;;;7.10;90.00;;;;;;5050702;28;20957;-50
2020/12/02 05:20:42;;;;;;;20.80;17.40;;;7.20;90.20;;;;;;5063884;28;20641;-49
2020/12/02 05:23:11;;;;;;;22.00;17.80;;;7.10;89.80;;;;;;5070128;28;21062;-50
2020/12/02 05:25:38;;;;;;;24.93;17.23;;;7.10;89.70;;;;;;5083291;28;20707;-50
2020/12/02 05:28:09;;;;;;;20.53;17.00;;;7.20;89.80;;;;;;5090642;28;20646;-49
2020/12/02 05:30:36;;;;;;;28.20;18.57;;;7.10;89.80;;;;;;5091246;28;20634;-50
2020/12/02 05:33:17;;;;;;;22.20;16.50;;;7.20;89.80;;;;;;5074754;28;20669;-50
2020/12/02 05:35:45;;;;;;;21.80;16.30;;;7.20;89.70;;;;;;5070674;28;20649;-52
2020/12/02 05:38:13;;;;;;;21.77;15.17;;;7.20;89.30;;;;;;5070098;28;20997;-53
2020/12/02 05:40:40;;;;;;;24.30;17.60;;;7.20;89.30;;;;;;5070089;28;20663;-52
2020/12/02 05:43:11;;;;;;;24.60;17.20;;;7.20;89.20;;;;;;5069952;28;20725;-52
2020/12/02 05:45:38;;;;;;;24.20;18.20;;;7.20;89.40;;;;;;5070073;28;20653;-53
2020/12/02 05:48:06;;;;;;;24.07;19.03;;;7.10;89.30;;;;;;5069750;28;20636;-53
2020/12/02 05:50:33;;;;;;;20.27;16.50;;;7.20;89.40;;;;;;5070207;28;20641;-53
2020/12/02 05:53:02;;;;;;;21.77;16.60;;;7.20;89.30;;;;;;5069842;28;20668;-50
2020/12/02 05:55:31;;;;;;;23.40;17.10;;;7.20;89.20;;;;;;5069693;28;20703;-50
2020/12/02 05:57:58;;;;;;;22.27;18.47;;;7.10;89.20;;;;;;5069267;28;20636;-49
2020/12/02 06:00:26;;;;;;;23.33;18.73;;;7.10;89.00;;;;;;5066683;28;20620;-50
2020/12/02 06:02:52;;;;;;;25.00;17.87;;;7.10;88.80;;;;;;5069736;28;21197;-49
2020/12/02 06:05:20;;;;;;;23.43;18.83;;;7.20;88.90;;;;;;5065899;28;21270;-50
2020/12/02 06:07:49;;;;;;;22.00;16.10;;;7.20;88.80;;;;;;5049484;28;21188;-49
2020/12/02 06:10:16;;;;;;;25.00;18.60;;;7.20;88.70;;;;;;5068447;28;20638;-49
2020/12/02 06:12:43;;;;;;;27.83;20.03;;;7.20;88.70;;;;;;5070321;28;21188;-50
2020/12/02 06:15:17;;;;;;;26.97;18.50;;;7.20;88.40;;;;;;5077659;28;20671;-50
2020/12/02 06:17:44;;;;;;;23.17;18.27;;;7.20;88.90;;;;;;5069244;28;20691;-49
2020/12/02 06:20:11;;;;;;;26.03;20.40;;;7.20;88.20;;;;;;5069082;28;20626;-50
2020/12/02 06:22:49;;;;;;;26.43;19.10;;;7.20;88.40;;;;;;5069738;28;20703;-50
2020/12/02 06:25:55;;;;;;;21.83;18.60;;;7.20;88.20;;;;;;5069889;28;20659;-49
2020/12/02 06:28:44;;;;;;;24.33;17.27;;;7.20;88.00;;;;;;5045490;28;20643;-49
2020/12/02 06:31:12;;;;;;;22.30;17.70;;;7.20;87.50;;;;;;5053739;28;20650;-51
2020/12/02 06:33:40;;;;;;;27.70;19.40;;;7.20;87.60;;;;;;5050813;28;20750;-53
2020/12/02 06:36:16;;;;;;;24.97;17.80;;;7.20;87.60;;;;;;5050228;28;20628;-52
2020/12/02 06:38:44;;;;;;;28.07;19.53;;;7.20;87.30;;;;;;5049211;28;20618;-51
2020/12/02 06:41:29;;;;;;;25.43;18.53;;;7.20;87.30;;;;;;5049372;28;21040;-51
2020/12/02 06:44:11;;;;;;;24.10;18.33;;;7.20;87.40;;;;;;5049733;28;21327;-53
2020/12/02 06:47:19;;;;;;;22.93;18.93;;;7.20;87.20;;;;;;5039067;28;20643;-53
2020/12/02 06:49:46;;;;;;;22.70;17.97;;;7.20;87.30;;;;;;5066317;28;21115;-53
2020/12/02 06:52:26;;;;;;;26.40;19.40;;;7.10;87.20;;;;;;5060098;28;20622;-51
2020/12/02 06:55:17;;;;;;;28.27;20.33;;;7.10;87.70;;;;;;5069125;28;21185;-52
2020/12/02 06:57:44;;;;;;;23.37;17.23;;;7.10;87.70;;;;;;5061913;28;20704;-51
2020/12/02 07:00:18;;;;;;;25.17;19.80;;;7.10;87.20;;;;;;5058115;28;20727;-50
2020/12/02 07:02:47;;;;;;;26.83;19.77;;;7.10;87.10;;;;;;5059289;28;20703;-49
2020/12/02 07:05:19;;;;;;;30.00;18.37;;;7.10;87.10;;;;;;5049972;28;20667;-50
2020/12/02 07:07:46;;;;;;;26.37;19.87;;;7.10;87.20;;;;;;5049791;28;20960;-50
2020/12/02 07:10:20;;;;;;;26.60;19.10;;;7.10;86.90;;;;;;5049413;28;20796;-51
2020/12/02 07:12:47;;;;;;;24.93;19.20;;;7.10;86.80;;;;;;5050248;28;20716;-52
2020/12/02 07:15:14;;;;;;;25.87;19.30;;;7.00;86.70;;;;;;5048948;28;20810;-50
2020/12/02 07:17:42;;;;;;;26.20;19.07;;;7.10;86.80;;;;;;5049105;28;21221;-50
2020/12/02 07:20:12;;;;;;;27.37;19.13;;;7.00;86.70;;;;;;5060014;28;20634;-49
2020/12/02 07:22:41;;;;;;;25.40;17.93;;;7.00;86.30;;;;;;5069334;28;20722;-52
2020/12/02 07:25:09;;;;;;;23.70;17.40;;;7.00;86.30;;;;;;5052424;28;20662;-50
2020/12/02 07:27:41;;;;;;;24.17;18.00;;;7.00;86.50;;;;;;5073786;28;20630;-51
2020/12/02 07:30:08;;;;;;;21.03;16.20;;;7.00;86.30;;;;;;5074600;28;20630;-52
2020/12/02 07:32:35;;;;;;;21.53;15.70;;;7.00;87.20;;;;;;5073275;28;20677;-51
2020/12/02 07:35:05;;;;;;;24.60;16.97;;;7.00;86.20;;;;;;5073567;28;20677;-53
2020/12/02 07:37:35;;;;;;;21.20;16.33;;;7.00;86.10;;;;;;5074150;28;20610;-53
2020/12/02 07:40:03;;;;;;;22.00;17.13;;;7.10;86.20;;;;;;5073569;28;20634;-50
2020/12/02 07:42:31;;;;;;;22.37;17.00;;;7.00;86.30;;;;;;5073070;28;20632;-51
2020/12/02 07:45:05;;;;;;;27.03;18.03;;;7.00;86.60;;;;;;5073120;28;20671;-53
2020/12/02 07:47:32;;;;;;;24.73;18.47;;;7.10;86.80;;;;;;5072661;28;20639;-51
2020/12/02 07:50:02;;;;;;;22.13;16.27;;;7.10;86.90;;;;;;5072581;28;20696;-53
2020/12/02 07:52:31;;;;;;;24.07;18.63;;;7.10;86.70;;;;;;5054566;28;20676;-50
2020/12/02 07:54:58;;;;;;;25.80;18.67;;;7.10;86.70;;;;;;5072659;28;20709;-53
2020/12/02 07:57:25;;;;;;;26.23;19.70;;;7.10;86.50;;;;;;5055159;28;21209;-49
2020/12/02 08:00:25;;;;;;;21.47;17.37;;;7.10;86.50;;;;;;5072841;28;20800;-50
2020/12/02 08:02:53;;;;;;;25.57;17.73;;;7.10;86.50;;;;;;4991146;28;21205;-51
2020/12/02 08:05:34;;;;;;;25.17;18.33;;;7.10;86.60;;;;;;5046199;28;20679;-51
2020/12/02 08:08:00;;;;;;;20.17;17.10;;;7.20;86.90;;;;;;5072757;28;21171;-51
2020/12/02 08:10:32;;;;;;;28.70;19.60;;;7.20;87.10;;;;;;5072254;28;20646;-54
2020/12/02 08:13:00;;;;;;;22.60;18.50;;;7.20;87.50;;;;;;5072785;28;20645;-52
2020/12/02 08:15:27;;;;;;;23.33;18.17;;;7.20;87.10;;;;;;5072105;28;20657;-53
2020/12/02 08:18:02;;;;;;;24.50;18.80;;;7.20;87.30;;;;;;5072561;28;20638;-52
2020/12/02 08:20:31;;;;;;;23.17;17.70;;;7.20;87.10;;;;;;5072633;28;20688;-53
2020/12/02 08:22:59;;;;;;;26.63;20.30;;;7.20;86.90;;;;;;5072305;28;20634;-53
2020/12/02 08:25:27;;;;;;;26.30;18.90;;;7.20;86.90;;;;;;5072140;28;20679;-52
2020/12/02 08:27:57;;;;;;;24.43;18.50;;;7.20;86.40;;;;;;5072273;28;20704;-52
2020/12/02 08:30:25;;;;;;;26.10;18.23;;;7.20;86.30;;;;;;5072074;28;20756;-52
2020/12/02 08:32:56;;;;;;;23.37;17.17;;;7.30;86.50;;;;;;5072358;28;20635;-54
2020/12/02 08:35:28;;;;;;;22.50;17.13;;;7.20;86.40;;;;;;5071792;28;20658;-54
2020/12/02 08:37:56;;;;;;;22.70;17.63;;;7.30;86.50;;;;;;5071040;28;20683;-51
2020/12/02 08:40:40;;;;;;;24.90;20.27;;;7.30;86.50;;;;;;5072323;28;21001;-52
2020/12/02 08:43:28;;;;;;;22.23;18.27;;;7.30;86.30;;;;;;5073067;28;21145;-52
2020/12/02 08:45:58;;;;;;;22.63;17.33;;;7.30;86.20;;;;;;5071326;28;20631;-52
2020/12/02 08:48:25;;;;;;;20.93;17.83;;;7.30;86.10;;;;;;5072214;28;20676;-53
2020/12/02 08:50:52;;;;;;;27.00;19.23;;;7.30;86.10;;;;;;5072257;28;20688;-51
2020/12/02 08:53:26;;;;;;;25.50;18.30;;;7.30;86.90;;;;;;5072094;28;20706;-49
2020/12/02 08:55:53;;;;;;;22.93;16.47;;;7.30;86.70;;;;;;5071459;28;21217;-48
2020/12/02 08:58:20;;;;;;;28.57;17.80;;;7.30;85.90;;;;;;5070858;28;20689;-51
2020/12/02 09:00:48;;;;;;;18.63;15.33;;;7.30;85.80;;;;;;5071474;28;20673;-50
2020/12/02 09:03:16;;;;;;;20.93;17.00;;;7.30;85.50;;;;;;5072008;28;20985;-53
2020/12/02 09:05:43;;;;;;;22.20;17.20;;;7.30;85.60;;;;;;5070514;28;21303;-54
2020/12/02 09:08:10;;;;;;;22.10;17.57;;;7.30;85.70;;;;;;5071418;28;21208;-51
2020/12/02 09:10:38;;;;;;;29.30;18.37;;;7.30;86.00;;;;;;5071691;28;21227;-51
2020/12/02 09:13:05;;;;;;;24.33;17.93;;;7.30;86.10;;;;;;5071009;28;20627;-52
2020/12/02 09:15:32;;;;;;;23.70;17.97;;;7.30;86.00;;;;;;5071162;28;21047;-51
2020/12/02 09:18:00;;;;;;;23.90;19.17;;;7.30;86.10;;;;;;5070894;28;21181;-52
2020/12/02 09:20:27;;;;;;;27.13;16.87;;;7.30;86.10;;;;;;5070837;28;20934;-54
2020/12/02 09:22:54;;;;;;;25.80;19.77;;;7.30;86.40;;;;;;5070853;28;20654;-51
2020/12/02 09:25:21;;;;;;;25.00;18.33;;;7.30;86.40;;;;;;5070156;28;20668;-50
2020/12/02 09:27:48;;;;;;;26.50;18.50;;;7.40;86.30;;;;;;5070639;28;20628;-50
2020/12/02 09:30:15;;;;;;;22.50;19.03;;;7.40;86.30;;;;;;5071401;28;20627;-50
2020/12/02 09:32:41;;;;;;;23.90;17.87;;;7.40;86.60;;;;;;5071020;28;20695;-51
2020/12/02 09:35:10;;;;;;;25.20;18.70;;;7.50;87.10;;;;;;5092302;22;20860;-56
2020/12/02 09:37:37;;;;;;;22.27;17.90;;;7.50;86.10;;;;;;5072036;28;20675;-57
2020/12/02 09:40:06;;;;;;;24.03;18.10;;;7.50;86.10;;;;;;5072016;28;20627;-57
2020/12/02 09:43:10;;;;;;;24.40;18.93;;;7.50;86.10;;;;;;5071798;28;20630;-57
2020/12/02 09:45:42;;;;;;;27.47;17.93;;;7.50;84.90;;;;;;5071653;28;20728;-57
2020/12/02 09:48:14;;;;;;;21.73;17.93;;;7.50;85.50;;;;;;5071927;28;20958;-58
2020/12/02 09:50:42;;;;;;;21.40;18.40;;;7.50;85.60;;;;;;5070545;28;20632;-57
2020/12/02 09:53:17;;;;;;;21.93;17.50;;;7.50;85.20;;;;;;5071567;28;20635;-56
2020/12/02 09:55:44;;;;;;;19.77;16.00;;;7.50;85.00;;;;;;5071361;28;20701;-57
2020/12/02 09:58:13;;;;;;;22.60;17.00;;;7.50;85.00;;;;;;5071938;28;21286;-57
2020/12/02 10:00:40;;;;;;;24.40;17.63;;;7.50;84.90;;;;;;5072067;28;20677;-57
2020/12/02 10:03:29;;;;;;;18.53;15.17;;;7.50;85.00;;;;;;5070392;28;20614;-56
2020/12/02 10:06:18;;;;;;;19.63;16.30;;;7.50;84.50;;;;;;5072195;28;20659;-58
2020/12/02 10:08:57;;;;;;;19.97;16.23;;;7.60;84.30;;;;;;5071653;28;20625;-57
2020/12/02 10:11:32;;;;;;;28.13;18.93;;;7.60;84.80;;;;;;5070639;28;20994;-58
2020/12/02 10:14:15;;;;;;;25.10;19.20;;;7.60;84.70;;;;;;5070379;28;20701;-55
2020/12/02 10:16:44;;;;;;;20.13;17.03;;;7.60;83.50;;;;;;5071233;28;20666;-57
2020/12/02 10:19:29;;;;;;;23.77;17.40;;;7.50;83.90;;;;;;5070209;28;21178;-57
2020/12/02 10:22:07;;;;;;;24.80;18.80;;;7.50;83.80;;;;;;5069842;28;20721;-55
2020/12/02 10:24:42;;;;;;;21.60;19.20;;;7.50;84.10;;;;;;5069686;28;20709;-58
2020/12/02 10:27:32;;;;;;;26.40;16.80;;;7.50;84.20;;;;;;5070933;28;20667;-57
2020/12/02 10:30:05;;;;;;;21.57;16.27;;;7.50;83.70;;;;;;5071675;28;21029;-57
2020/12/02 10:32:54;;;;;;;20.70;17.53;;;7.60;84.60;;;;;;5070618;28;20635;-56
2020/12/02 10:35:21;;;;;;;20.97;17.60;;;7.60;83.70;;;;;;5071127;28;20655;-58
2020/12/02 10:37:49;;;;;;;23.33;16.67;;;7.60;83.90;;;;;;5071001;28;20640;-56
2020/12/02 10:40:22;;;;;;;22.63;17.50;;;7.60;83.80;;;;;;5069287;28;20627;-58
2020/12/02 10:42:54;;;;;;;27.00;18.37;;;7.60;84.00;;;;;;5070841;28;20616;-57
2020/12/02 10:45:22;;;;;;;24.10;19.23;;;7.70;84.00;;;;;;5071001;28;20679;-58
2020/12/02 10:48:24;;;;;;;23.03;19.10;;;7.60;83.70;;;;;;5071148;28;20619;-58
2020/12/02 10:50:52;;;;;;;21.50;16.93;;;7.60;83.10;;;;;;5069988;28;20626;-57
2020/12/02 10:53:24;;;;;;;20.27;15.90;;;7.60;83.40;;;;;;5069697;28;20662;-58
2020/12/02 10:55:51;;;;;;;22.20;17.40;;;7.60;83.80;;;;;;5070001;28;20645;-57
2020/12/02 10:58:19;;;;;;;33.60;17.50;;;7.60;83.40;;;;;;5069840;28;20687;-56
2020/12/02 11:00:48;;;;;;;25.07;17.67;;;7.60;83.20;;;;;;5072156;28;20635;-55
2020/12/02 11:03:24;;;;;;;24.67;17.57;;;7.60;83.10;;;;;;5075340;28;20668;-55
2020/12/02 11:06:14;;;;;;;26.37;20.13;;;7.60;82.90;;;;;;5074612;28;20676;-56
2020/12/02 11:09:01;;;;;;;28.20;19.63;;;7.60;83.20;;;;;;5075051;28;20690;-58
2020/12/02 11:11:34;;;;;;;24.80;17.70;;;7.60;84.00;;;;;;5075256;28;20619;-58
2020/12/02 11:14:06;;;;;;;23.40;17.93;;;7.60;84.20;;;;;;5074730;28;21174;-55
2020/12/02 11:16:37;;;;;;;24.70;17.50;;;7.60;84.40;;;;;;5074533;28;20697;-56
2020/12/02 11:19:18;;;;;;;23.50;17.93;;;7.60;84.00;;;;;;5074105;28;20718;-58
2020/12/02 11:22:01;;;;;;;21.13;17.63;;;7.60;84.00;;;;;;5075098;28;21007;-55
2020/12/02 11:24:41;;;;;;;19.77;16.23;;;7.50;83.90;;;;;;5070894;28;21159;-55
2020/12/02 11:27:08;;;;;;;23.63;18.67;;;7.50;83.60;;;;;;5074717;28;20693;-55
2020/12/02 11:29:35;;;;;;;21.20;18.93;;;7.50;83.30;;;;;;5074595;28;20624;-56
2020/12/02 11:32:15;;;;;;;19.90;17.07;;;7.50;83.20;;;;;;5074249;28;20636;-57
2020/12/02 11:34:54;;;;;;;23.10;18.30;;;7.50;83.20;;;;;;5072650;28;20643;-57
2020/12/02 11:37:23;;;;;;;24.20;20.17;;;7.50;83.50;;;;;;5073829;28;20635;-57
2020/12/02 11:40:02;;;;;;;24.60;19.03;;;7.50;84.50;;;;;;5074088;28;20627;-58
2020/12/02 11:42:35;;;;;;;23.73;19.93;;;7.50;84.30;;;;;;5073005;28;20618;-57
2020/12/02 11:45:05;;;;;;;28.43;21.40;;;7.60;83.70;;;;;;5074032;28;20667;-57
2020/12/02 11:47:43;;;;;;;27.03;19.10;;;7.60;83.60;;;;;;5073065;28;20701;-58
2020/12/02 11:50:15;;;;;;;22.10;18.47;;;7.60;83.30;;;;;;5073762;28;20987;-56
2020/12/02 11:52:50;;;;;;;24.87;19.27;;;7.60;82.40;;;;;;5074819;28;21178;-57
2020/12/02 11:55:18;;;;;;;23.33;18.23;;;7.60;81.60;;;;;;5074144;28;20651;-54
2020/12/02 11:57:48;;;;;;;23.53;15.30;;;7.50;81.80;;;;;;5073449;28;20687;-54
2020/12/02 12:00:15;;;;;;;21.70;15.80;;;7.50;81.40;;;;;;5072475;28;20790;-54
2020/12/02 12:02:52;;;;;;;19.90;14.77;;;7.50;81.30;;;;;;5072567;28;20644;-57
2020/12/02 12:05:21;;;;;;;20.60;16.50;;;7.50;81.20;;;;;;5071972;28;20666;-59
2020/12/02 12:07:56;;;;;;;23.80;19.30;;;7.50;81.30;;;;;;5071743;28;20983;-56
2020/12/02 12:10:27;;;;;;;20.30;15.57;;;7.50;81.30;;;;;;5073349;28;21177;-56
2020/12/02 12:13:02;;;;;;;21.63;18.30;;;7.50;81.40;;;;;;5071806;28;20631;-56
2020/12/02 12:15:33;;;;;;;21.87;19.13;;;7.50;81.40;;;;;;5073989;28;20639;-56
2020/12/02 12:18:01;;;;;;;22.20;16.00;;;7.50;81.60;;;;;;5070952;28;20701;-56
2020/12/02 12:20:30;;;;;;;19.40;17.30;;;7.60;82.30;;;;;;5073330;28;20625;-56
2020/12/02 12:23:03;;;;;;;25.30;20.23;;;7.60;81.40;;;;;;5073160;28;20653;-57
2020/12/02 12:25:32;;;;;;;26.00;17.90;;;7.60;81.10;;;;;;5071916;28;20685;-58
2020/12/02 12:28:01;;;;;;;26.13;20.43;;;7.60;82.20;;;;;;5073448;28;20631;-57
2020/12/02 12:30:28;;;;;;;22.53;17.20;;;7.60;81.90;;;;;;5074198;28;20689;-57
2020/12/02 12:32:59;;;;;;;23.50;17.87;;;7.60;81.20;;;;;;5072984;28;20632;-57
2020/12/02 12:35:27;;;;;;;25.80;18.83;;;7.60;80.60;;;;;;5073033;28;20662;-57
2020/12/02 12:38:02;;;;;;;22.53;17.63;;;7.60;80.00;;;;;;5074020;28;20624;-56
2020/12/02 12:40:33;;;;;;;19.93;17.07;;;7.60;80.30;;;;;;5072128;28;20638;-56
2020/12/02 12:43:00;;;;;;;20.87;18.40;;;7.60;80.00;;;;;;5073485;28;21177;-57
2020/12/02 12:45:29;;;;;;;19.57;16.30;;;7.60;80.10;;;;;;5072135;28;21014;-56
2020/12/02 12:47:57;;;;;;;18.40;16.50;;;7.50;80.60;;;;;;5072851;28;20793;-58
2020/12/02 12:50:25;;;;;;;18.47;15.87;;;7.60;80.70;;;;;;5073475;28;20630;-56
2020/12/02 12:52:52;;;;;;;19.10;15.97;;;7.50;80.20;;;;;;5073816;28;20649;-55